createdAt,value
2023-12-11T00:00:01.031Z,7
2023-12-11T00:00:59.880Z,7
2023-12-11T00:01:58.702Z,7
2023-12-11T00:03:01.074Z,7
2023-12-11T00:03:59.974Z,6.9
2023-12-11T00:04:58.689Z,6.9
2023-12-11T00:06:01.047Z,6.9
2023-12-11T00:06:59.750Z,6.9
2023-12-11T00:08:00.991Z,6.9
2023-12-11T00:08:59.625Z,6.9
2023-12-11T00:10:00.431Z,6.9
2023-12-11T00:10:59.137Z,6.8
2023-12-11T00:12:00.148Z,6.9
2023-12-11T00:12:59.011Z,6.9
2023-12-11T00:13:59.671Z,6.8
2023-12-11T00:15:01.413Z,6.8
2023-12-11T00:16:00.180Z,6.8
2023-12-11T00:16:58.880Z,6.8
2023-12-11T00:18:01.148Z,6.8
2023-12-11T00:19:00.002Z,6.8
2023-12-11T00:19:59.097Z,6.8
2023-12-11T00:20:59.838Z,6.8
2023-12-11T00:22:01.459Z,6.8
2023-12-11T00:23:00.231Z,6.8
2023-12-11T00:23:58.908Z,6.8
2023-12-11T00:25:01.035Z,6.8
2023-12-11T00:25:59.664Z,6.8
2023-12-11T00:27:00.386Z,6.8
2023-12-11T00:27:59.081Z,6.7
2023-12-11T00:28:59.868Z,6.8
2023-12-11T00:30:01.028Z,6.7
2023-12-11T00:30:59.716Z,6.7
2023-12-11T00:32:01.153Z,6.7
2023-12-11T00:32:59.918Z,6.7
2023-12-11T00:33:58.716Z,6.7
2023-12-11T00:35:01.170Z,6.7
2023-12-11T00:35:59.941Z,6.6
2023-12-11T00:36:58.654Z,6.7
2023-12-11T00:38:00.369Z,6.6
2023-12-11T00:38:59.102Z,6.6
2023-12-11T00:39:59.820Z,6.6
2023-12-11T00:41:00.999Z,6.6
2023-12-11T00:41:59.756Z,6.6
2023-12-11T00:43:00.996Z,6.6
2023-12-11T00:43:59.656Z,6.6
2023-12-11T00:45:01.081Z,6.6
2023-12-11T00:46:00.093Z,6.6
2023-12-11T00:46:58.766Z,6.6
2023-12-11T00:48:01.209Z,6.6
2023-12-11T00:49:00.276Z,6.6
2023-12-11T00:49:59.167Z,6.6
2023-12-11T00:51:00.416Z,6.6
2023-12-11T00:51:59.177Z,6.5
2023-12-11T00:52:59.930Z,6.5
2023-12-11T00:54:00.963Z,6.5
2023-12-11T00:54:59.787Z,6.5
2023-12-11T00:56:00.946Z,6.5
2023-12-11T00:56:59.626Z,6.5
2023-12-11T00:58:00.558Z,6.5
2023-12-11T00:58:59.230Z,6.5
2023-12-11T01:00:00.043Z,6.5
2023-12-11T01:01:03.391Z,6.5
2023-12-11T01:02:00.349Z,6.5
2023-12-11T01:02:59.084Z,6.5
2023-12-11T01:03:59.837Z,6.5
2023-12-11T01:05:00.989Z,6.5
2023-12-11T01:06:04.815Z,6.4
2023-12-11T01:06:59.812Z,6.4
2023-12-11T01:08:01.448Z,6.4
2023-12-11T01:09:00.099Z,6.4
2023-12-11T01:09:58.851Z,6.3
2023-12-11T01:11:09.076Z,6.3
2023-12-11T01:12:00.976Z,6.3
2023-12-11T01:12:59.633Z,6.3
2023-12-11T01:14:00.431Z,6.3
2023-12-11T01:14:59.126Z,6.3
2023-12-11T01:16:10.638Z,6.3
2023-12-11T01:16:59.772Z,6.3
2023-12-11T01:18:00.449Z,6.3
2023-12-11T01:18:59.343Z,6.3
2023-12-11T01:20:00.412Z,6.3
2023-12-11T01:21:13.372Z,6.3
2023-12-11T01:21:59.679Z,6.3
2023-12-11T01:23:00.425Z,6.3
2023-12-11T01:23:59.102Z,6.2
2023-12-11T01:25:00.302Z,6.2
2023-12-11T01:25:58.992Z,6.2
2023-12-11T01:26:59.928Z,6.2
2023-12-11T01:28:01.407Z,6.2
2023-12-11T01:29:00.209Z,6.2
2023-12-11T01:29:58.952Z,6.2
2023-12-11T01:30:59.680Z,6.1
2023-12-11T01:32:01.383Z,6.1
2023-12-11T01:33:00.262Z,6.1
2023-12-11T01:33:59.023Z,6.1
2023-12-11T01:34:59.775Z,6.1
2023-12-11T01:36:01.057Z,6.1
2023-12-11T01:37:00.034Z,6.1
2023-12-11T01:37:58.762Z,6.1
2023-12-11T01:39:01.347Z,6.1
2023-12-11T01:40:00.059Z,6.1
2023-12-11T01:40:58.795Z,6.1
2023-12-11T01:42:01.130Z,6.1
2023-12-11T01:43:07.204Z,6.1
2023-12-11T01:44:00.099Z,6.1
2023-12-11T01:44:59.063Z,6.1
2023-12-11T01:45:59.777Z,6.1
2023-12-11T01:47:00.999Z,6.1
2023-12-11T01:47:59.891Z,6.1
2023-12-11T01:48:58.723Z,6.1
2023-12-11T01:50:00.997Z,6.1
2023-12-11T01:50:59.698Z,6.1
2023-12-11T01:52:01.174Z,6.1
2023-12-11T01:52:59.886Z,6.1
2023-12-11T01:54:01.025Z,6.1
2023-12-11T01:54:59.836Z,6.1
2023-12-11T01:56:01.074Z,6.1
2023-12-11T01:56:59.803Z,6.1
2023-12-11T01:58:01.088Z,6.1
2023-12-11T01:58:59.978Z,6.1
2023-12-11T01:59:58.708Z,6.1
2023-12-11T02:01:01.073Z,6.1
2023-12-11T02:01:59.906Z,6.1
2023-12-11T02:03:00.948Z,6.1
2023-12-11T02:03:59.816Z,6.2
2023-12-11T02:05:01.300Z,6.2
2023-12-11T02:06:00.563Z,6.1
2023-12-11T02:07:00.113Z,6.1
2023-12-11T02:07:58.856Z,6.2
2023-12-11T02:09:00.946Z,6.2
2023-12-11T02:09:59.621Z,6.1
2023-12-11T02:11:00.317Z,6.1
2023-12-11T02:11:58.978Z,6.1
2023-12-11T02:12:59.995Z,6.2
2023-12-11T02:13:58.634Z,6.2
2023-12-11T02:15:01.254Z,6.2
2023-12-11T02:15:59.986Z,6.2
2023-12-11T02:16:58.701Z,6.2
2023-12-11T02:18:01.036Z,6.2
2023-12-11T02:18:59.925Z,6.3
2023-12-11T02:19:58.779Z,6.3
2023-12-11T02:21:01.201Z,6.2
2023-12-11T02:21:59.981Z,6.3
2023-12-11T02:22:58.841Z,6.3
2023-12-11T02:24:01.022Z,6.2
2023-12-11T02:24:59.715Z,6.3
2023-12-11T02:26:01.048Z,6.3
2023-12-11T02:26:59.690Z,6.3
2023-12-11T02:28:00.416Z,6.3
2023-12-11T02:28:59.128Z,6.3
2023-12-11T02:29:59.828Z,6.3
2023-12-11T02:31:01.352Z,6.3
2023-12-11T02:32:00.095Z,6.3
2023-12-11T02:32:58.856Z,6.3
2023-12-11T02:34:01.142Z,6.3
2023-12-11T02:34:59.937Z,6.3
2023-12-11T02:35:58.912Z,6.3
2023-12-11T02:37:01.011Z,6.3
2023-12-11T02:37:59.773Z,6.3
2023-12-11T02:39:01.433Z,6.3
2023-12-11T02:40:00.256Z,6.3
2023-12-11T02:40:59.065Z,6.3
2023-12-11T02:42:02.577Z,6.3
2023-12-11T02:42:59.831Z,6.3
2023-12-11T02:44:00.948Z,6.4
2023-12-11T02:44:59.622Z,6.4
2023-12-11T02:46:00.385Z,6.4
2023-12-11T02:47:04.925Z,6.4
2023-12-11T02:48:00.272Z,6.5
2023-12-11T02:48:59.183Z,6.5
2023-12-11T02:49:59.866Z,6.5
2023-12-11T02:51:01.029Z,6.5
2023-12-11T02:52:07.686Z,6.5
2023-12-11T02:52:59.869Z,6.5
2023-12-11T02:54:01.006Z,6.5
2023-12-11T02:54:59.687Z,6.5
2023-12-11T02:56:00.419Z,6.6
2023-12-11T02:57:09.754Z,6.6
2023-12-11T02:58:01.330Z,6.6
2023-12-11T02:59:00.062Z,6.6
2023-12-11T02:59:58.891Z,6.6
2023-12-11T03:00:59.677Z,6.6
2023-12-11T03:02:13.714Z,6.6
2023-12-11T03:03:00.965Z,6.6
2023-12-11T03:03:59.731Z,6.6
2023-12-11T03:05:00.970Z,6.6
2023-12-11T03:06:00.040Z,6.6
2023-12-11T03:06:58.858Z,6.6
2023-12-11T03:08:01.093Z,6.6
2023-12-11T03:08:59.859Z,6.7
2023-12-11T03:10:01.210Z,6.6
2023-12-11T03:11:00.105Z,6.7
2023-12-11T03:11:58.857Z,6.7
2023-12-11T03:13:01.027Z,6.7
2023-12-11T03:14:00.091Z,6.7
2023-12-11T03:14:58.882Z,6.7
2023-12-11T03:16:01.392Z,6.7
2023-12-11T03:17:00.112Z,6.7
2023-12-11T03:17:58.827Z,6.7
2023-12-11T03:19:01.229Z,6.7
2023-12-11T03:20:00.151Z,6.7
2023-12-11T03:20:58.904Z,6.7
2023-12-11T03:22:01.158Z,6.7
2023-12-11T03:23:00.333Z,6.7
2023-12-11T03:23:59.030Z,6.7
2023-12-11T03:24:59.918Z,6.7
2023-12-11T03:25:58.641Z,6.8
2023-12-11T03:27:00.399Z,6.8
2023-12-11T03:27:59.093Z,6.8
2023-12-11T03:28:59.797Z,6.8
2023-12-11T03:30:01.051Z,6.8
2023-12-11T03:30:59.853Z,6.8
2023-12-11T03:32:01.054Z,6.8
2023-12-11T03:32:59.745Z,6.8
2023-12-11T03:34:01.188Z,6.8
2023-12-11T03:34:59.968Z,6.8
2023-12-11T03:35:58.703Z,6.8
2023-12-11T03:37:01.419Z,6.8
2023-12-11T03:37:59.947Z,6.8
2023-12-11T03:38:58.717Z,6.9
2023-12-11T03:40:01.016Z,6.9
2023-12-11T03:40:59.716Z,6.9
2023-12-11T03:42:01.325Z,7
2023-12-11T03:43:00.045Z,7
2023-12-11T03:43:58.762Z,7
2023-12-11T03:45:01.080Z,7
2023-12-11T03:45:59.927Z,7
2023-12-11T03:46:58.658Z,7.1
2023-12-11T03:48:00.443Z,7.1
2023-12-11T03:48:59.276Z,7.1
2023-12-11T03:50:00.120Z,7.1
2023-12-11T03:50:58.920Z,7.1
2023-12-11T03:52:00.972Z,7.1
2023-12-11T03:52:59.745Z,7.2
2023-12-11T03:54:00.964Z,7.2
2023-12-11T03:54:59.691Z,7.2
2023-12-11T03:56:00.998Z,7.2
2023-12-11T03:56:59.728Z,7.2
2023-12-11T03:58:01.045Z,7.2
2023-12-11T03:58:59.936Z,7.3
2023-12-11T04:00:01.410Z,7.3
2023-12-11T04:01:00.314Z,7.3
2023-12-11T04:01:59.155Z,7.4
2023-12-11T04:02:59.895Z,7.4
2023-12-11T04:04:01.008Z,7.4
2023-12-11T04:04:59.746Z,7.5
2023-12-11T04:06:01.360Z,7.5
2023-12-11T04:07:00.114Z,7.5
2023-12-11T04:07:58.798Z,7.5
2023-12-11T04:09:01.074Z,7.5
2023-12-11T04:09:59.741Z,7.5
2023-12-11T04:11:00.998Z,7.5
2023-12-11T04:11:59.652Z,7.5
2023-12-11T04:13:00.550Z,7.5
2023-12-11T04:13:59.384Z,7.5
2023-12-11T04:15:00.102Z,7.6
2023-12-11T04:15:58.812Z,7.6
2023-12-11T04:17:01.012Z,7.6
2023-12-11T04:17:59.708Z,7.6
2023-12-11T04:19:01.353Z,7.6
2023-12-11T04:20:00.354Z,7.6
2023-12-11T04:20:59.334Z,7.6
2023-12-11T04:22:00.189Z,7.6
2023-12-11T04:23:00.588Z,7.6
2023-12-11T04:23:59.308Z,7.6
2023-12-11T04:25:00.064Z,7.6
2023-12-11T04:25:58.823Z,7.6
2023-12-11T04:27:00.975Z,7.6
2023-12-11T04:28:04.271Z,7.6
2023-12-11T04:28:59.977Z,7.6
2023-12-11T04:29:58.644Z,7.5
2023-12-11T04:31:00.572Z,7.5
2023-12-11T04:31:59.268Z,7.6
2023-12-11T04:33:05.953Z,7.6
2023-12-11T04:34:01.217Z,7.6
2023-12-11T04:34:59.740Z,7.6
2023-12-11T04:36:03.424Z,7.6
2023-12-11T04:37:01.118Z,7.6
2023-12-11T04:38:09.141Z,7.6
2023-12-11T04:38:59.835Z,7.6
2023-12-11T04:40:01.411Z,7.6
2023-12-11T04:41:00.201Z,7.6
2023-12-11T04:41:58.914Z,7.6
2023-12-11T04:43:11.722Z,7.6
2023-12-11T04:43:59.774Z,7.6
2023-12-11T04:45:01.157Z,7.6
2023-12-11T04:46:00.143Z,7.6
2023-12-11T04:46:58.953Z,7.6
2023-12-11T04:48:15.097Z,7.6
2023-12-11T04:48:59.729Z,7.6
2023-12-11T04:50:01.068Z,7.6
2023-12-11T04:50:59.852Z,7.6
2023-12-11T04:52:01.186Z,7.6
2023-12-11T04:52:59.924Z,7.6
2023-12-11T04:53:58.909Z,7.6
2023-12-11T04:55:01.388Z,7.6
2023-12-11T04:56:00.306Z,7.6
2023-12-11T04:56:59.103Z,7.6
2023-12-11T04:57:59.886Z,7.6
2023-12-11T04:59:00.973Z,7.6
2023-12-11T04:59:59.702Z,7.6
2023-12-11T05:01:01.042Z,7.6
2023-12-11T05:02:00.307Z,7.6
2023-12-11T05:02:59.148Z,7.6
2023-12-11T05:03:59.848Z,7.6
2023-12-11T05:05:01.028Z,7.6
2023-12-11T05:05:59.866Z,7.6
2023-12-11T05:07:01.141Z,7.6
2023-12-11T05:07:59.935Z,7.6
2023-12-11T05:08:58.662Z,7.6
2023-12-11T05:10:00.376Z,7.6
2023-12-11T05:10:59.093Z,7.6
2023-12-11T05:11:59.826Z,7.6
2023-12-11T05:13:01.082Z,7.7
2023-12-11T05:13:59.835Z,7.6
2023-12-11T05:15:00.951Z,7.6
2023-12-11T05:15:59.689Z,7.6
2023-12-11T05:17:01.004Z,7.6
2023-12-11T05:17:59.669Z,7.6
2023-12-11T05:19:01.229Z,7.6
2023-12-11T05:19:59.976Z,7.6
2023-12-11T05:20:58.740Z,7.6
2023-12-11T05:22:01.074Z,7.6
2023-12-11T05:22:59.778Z,7.6
2023-12-11T05:24:01.019Z,7.6
2023-12-11T05:24:59.716Z,7.6
2023-12-11T05:26:01.061Z,7.6
2023-12-11T05:26:59.828Z,7.6
2023-12-11T05:28:01.438Z,7.6
2023-12-11T05:29:00.167Z,7.6
2023-12-11T05:29:59.009Z,7.6
2023-12-11T05:30:59.879Z,7.6
2023-12-11T05:32:01.038Z,7.6
2023-12-11T05:32:59.842Z,7.6
2023-12-11T05:34:01.586Z,7.6
2023-12-11T05:35:00.298Z,7.6
2023-12-11T05:35:58.949Z,7.6
2023-12-11T05:36:59.750Z,7.6
2023-12-11T05:38:01.003Z,7.6
2023-12-11T05:38:59.671Z,7.6
2023-12-11T05:40:20.921Z,7.7
2023-12-11T05:41:00.456Z,7.7
2023-12-11T05:41:59.129Z,7.7
2023-12-11T05:43:00.033Z,7.6
2023-12-11T05:43:58.683Z,7.6
2023-12-11T05:45:00.685Z,7.6
2023-12-11T05:45:59.458Z,7.6
2023-12-11T05:47:00.281Z,7.7
2023-12-11T05:47:59.065Z,7.7
2023-12-11T05:49:00.021Z,7.7
2023-12-11T05:49:58.934Z,7.7
2023-12-11T05:50:59.612Z,7.7
2023-12-11T05:52:00.306Z,7.7
2023-12-11T05:52:59.082Z,7.7
2023-12-11T05:53:59.903Z,7.7
2023-12-11T05:55:01.431Z,7.7
2023-12-11T05:56:00.259Z,7.7
2023-12-11T05:56:59.006Z,7.7
2023-12-11T05:57:59.718Z,7.7
2023-12-11T05:59:01.064Z,7.7
2023-12-11T05:59:59.706Z,7.7
2023-12-11T06:01:01.053Z,7.7
2023-12-11T06:02:00.080Z,7.8
2023-12-11T06:02:58.886Z,7.7
2023-12-11T06:04:01.561Z,7.7
2023-12-11T06:05:00.452Z,7.7
2023-12-11T06:05:59.413Z,7.8
2023-12-11T06:07:00.230Z,7.7
2023-12-11T06:07:58.961Z,7.7
2023-12-11T06:08:59.721Z,7.7
2023-12-11T06:10:01.189Z,7.8
2023-12-11T06:11:00.165Z,7.8
2023-12-11T06:11:58.872Z,7.8
2023-12-11T06:13:01.108Z,7.8
2023-12-11T06:14:01.615Z,7.8
2023-12-11T06:14:59.862Z,7.8
2023-12-11T06:16:03.951Z,7.8
2023-12-11T06:17:00.993Z,7.8
2023-12-11T06:17:59.787Z,7.8
2023-12-11T06:19:04.525Z,7.8
2023-12-11T06:20:01.039Z,7.8
2023-12-11T06:21:02.738Z,7.8
2023-12-11T06:22:00.290Z,7.8
2023-12-11T06:22:58.938Z,7.8
2023-12-11T06:24:07.660Z,7.8
2023-12-11T06:24:59.611Z,7.8
2023-12-11T06:26:00.268Z,7.8
2023-12-11T06:26:58.892Z,7.9
2023-12-11T06:28:00.994Z,7.9
2023-12-11T06:29:09.119Z,7.9
2023-12-11T06:30:00.191Z,7.9
2023-12-11T06:30:58.875Z,7.9
2023-12-11T06:32:01.068Z,7.9
2023-12-11T06:32:59.799Z,8
2023-12-11T06:34:13.384Z,8
2023-12-11T06:35:01.106Z,8
2023-12-11T06:36:00.006Z,8
2023-12-11T06:36:59.378Z,8
2023-12-11T06:38:00.357Z,8
2023-12-11T06:39:14.819Z,8
2023-12-11T06:40:01.222Z,8
2023-12-11T06:41:00.328Z,8
2023-12-11T06:42:00.165Z,8
2023-12-11T06:42:59.318Z,8
2023-12-11T06:43:59.992Z,8
2023-12-11T06:44:58.659Z,8
2023-12-11T06:46:00.354Z,8
2023-12-11T06:46:59.199Z,8
2023-12-11T06:47:59.944Z,8
2023-12-11T06:48:59.207Z,8
2023-12-11T06:50:00.574Z,8
2023-12-11T06:50:59.491Z,8
2023-12-11T06:52:00.234Z,8
2023-12-11T06:52:58.935Z,8
2023-12-11T06:53:59.899Z,8
2023-12-11T06:54:58.856Z,8
2023-12-11T06:56:01.022Z,8
2023-12-11T06:56:59.660Z,8
2023-12-11T06:58:00.264Z,8
2023-12-11T06:58:59.163Z,8
2023-12-11T06:59:59.821Z,8
2023-12-11T07:01:01.094Z,8
2023-12-11T07:01:59.942Z,8
2023-12-11T07:02:58.708Z,8
2023-12-11T07:04:01.215Z,8
2023-12-11T07:05:00.143Z,8
2023-12-11T07:05:59.066Z,8
2023-12-11T07:06:59.817Z,7.9
2023-12-11T07:08:00.969Z,7.9
2023-12-11T07:08:59.656Z,7.9
2023-12-11T07:10:01.075Z,7.9
2023-12-11T07:10:59.851Z,7.9
2023-12-11T07:12:01.050Z,7.9
2023-12-11T07:12:59.798Z,7.9
2023-12-11T07:14:01.223Z,7.9
2023-12-11T07:14:59.944Z,7.9
2023-12-11T07:15:58.949Z,7.9
2023-12-11T07:16:59.791Z,7.9
2023-12-11T07:18:01.310Z,7.9
2023-12-11T07:19:00.269Z,7.8
2023-12-11T07:19:59.035Z,7.9
2023-12-11T07:20:59.709Z,7.8
2023-12-11T07:22:01.010Z,7.8
2023-12-11T07:22:59.753Z,7.8
2023-12-11T07:24:00.972Z,7.8
2023-12-11T07:24:59.672Z,7.8
2023-12-11T07:26:01.351Z,7.8
2023-12-11T07:27:00.056Z,7.8
2023-12-11T07:27:58.758Z,7.8
2023-12-11T07:29:01.000Z,7.8
2023-12-11T07:29:59.629Z,7.8
2023-12-11T07:31:00.345Z,7.8
2023-12-11T07:31:59.463Z,7.8
2023-12-11T07:33:00.307Z,7.9
2023-12-11T07:33:59.252Z,7.9
2023-12-11T07:35:00.020Z,7.9
2023-12-11T07:35:58.792Z,7.9
2023-12-11T07:37:01.134Z,7.9
2023-12-11T07:37:59.864Z,8
2023-12-11T07:39:00.965Z,8
2023-12-11T07:40:00.356Z,8
2023-12-11T07:40:59.124Z,8
2023-12-11T07:41:59.864Z,8
2023-12-11T07:43:01.086Z,8
2023-12-11T07:43:59.759Z,8
2023-12-11T07:45:01.036Z,8
2023-12-11T07:45:59.806Z,8
2023-12-11T07:46:58.972Z,8
2023-12-11T07:47:59.809Z,8
2023-12-11T07:49:01.263Z,8
2023-12-11T07:50:00.337Z,8
2023-12-11T07:50:59.179Z,8
2023-12-11T07:52:00.034Z,8
2023-12-11T07:52:58.694Z,8
2023-12-11T07:54:00.958Z,8
2023-12-11T07:55:00.317Z,8
2023-12-11T07:55:59.253Z,8
2023-12-11T07:56:59.942Z,8
2023-12-11T07:57:58.703Z,8.1
2023-12-11T07:59:01.006Z,8.1
2023-12-11T08:00:01.743Z,8.1
2023-12-11T08:00:59.837Z,8.1
2023-12-11T08:02:01.088Z,8
2023-12-11T08:02:59.603Z,8.1
2023-12-11T08:04:00.358Z,8.1
2023-12-11T08:04:59.896Z,8
2023-12-11T08:05:58.759Z,8
2023-12-11T08:07:01.091Z,8
2023-12-11T08:07:59.923Z,8
2023-12-11T08:09:01.074Z,8
2023-12-11T08:10:01.684Z,8
2023-12-11T08:10:59.784Z,8
2023-12-11T08:12:00.968Z,8
2023-12-11T08:12:59.689Z,8
2023-12-11T08:14:00.955Z,8
2023-12-11T08:15:05.442Z,8
2023-12-11T08:15:59.719Z,8
2023-12-11T08:17:01.053Z,8
2023-12-11T08:17:59.826Z,8
2023-12-11T08:19:01.254Z,8
2023-12-11T08:20:07.390Z,8
2023-12-11T08:21:00.009Z,8
2023-12-11T08:21:58.722Z,8
2023-12-11T08:23:01.035Z,8
2023-12-11T08:23:59.714Z,8
2023-12-11T08:25:10.338Z,8
2023-12-11T08:25:59.866Z,8
2023-12-11T08:27:01.405Z,8
2023-12-11T08:28:00.366Z,8
2023-12-11T08:29:00.546Z,8
2023-12-11T08:30:11.722Z,7.9
2023-12-11T08:31:01.001Z,7.9
2023-12-11T08:31:59.666Z,7.9
2023-12-11T08:33:00.426Z,7.9
2023-12-11T08:33:59.205Z,7.9
2023-12-11T08:35:15.188Z,7.9
2023-12-11T08:36:00.043Z,7.9
2023-12-11T08:36:58.769Z,7.9
2023-12-11T08:38:01.108Z,7.9
2023-12-11T08:38:59.754Z,7.9
2023-12-11T08:40:01.410Z,7.9
2023-12-11T08:41:00.166Z,7.9
2023-12-11T08:41:58.949Z,7.9
2023-12-11T08:42:59.693Z,8
2023-12-11T08:44:00.963Z,8
2023-12-11T08:44:59.660Z,8
2023-12-11T08:46:00.327Z,8
2023-12-11T08:46:59.073Z,8
2023-12-11T08:47:59.965Z,8
2023-12-11T08:48:58.785Z,8
2023-12-11T08:50:01.162Z,8.1
2023-12-11T08:51:00.182Z,8.1
2023-12-11T08:51:58.889Z,8.1
2023-12-11T08:53:01.017Z,8.1
2023-12-11T08:53:59.797Z,8.1
2023-12-11T08:55:01.001Z,8.2
2023-12-11T08:55:59.674Z,8.2
2023-12-11T08:57:00.328Z,8.2
2023-12-11T08:57:59.068Z,8.3
2023-12-11T08:58:59.821Z,8.2
2023-12-11T09:00:01.071Z,8.3
2023-12-11T09:00:59.908Z,8.3
2023-12-11T09:01:58.842Z,8.3
2023-12-11T09:03:01.019Z,8.4
2023-12-11T09:03:59.795Z,8.4
2023-12-11T09:05:01.204Z,8.4
2023-12-11T09:05:59.960Z,8.5
2023-12-11T09:06:58.799Z,8.5
2023-12-11T09:08:01.028Z,8.5
2023-12-11T09:08:59.679Z,8.5
2023-12-11T09:10:00.556Z,8.5
2023-12-11T09:10:59.320Z,8.5
2023-12-11T09:12:00.140Z,8.5
2023-12-11T09:12:58.832Z,8.5
2023-12-11T09:14:01.736Z,8.6
2023-12-11T09:15:01.017Z,8.6
2023-12-11T09:15:59.773Z,8.6
2023-12-11T09:17:00.977Z,8.6
2023-12-11T09:17:59.665Z,8.7
2023-12-11T09:19:00.451Z,8.8
2023-12-11T09:19:59.423Z,8.8
2023-12-11T09:21:00.283Z,8.8
2023-12-11T09:21:58.959Z,8.8
2023-12-11T09:22:59.663Z,8.8
2023-12-11T09:24:00.404Z,8.8
2023-12-11T09:24:59.131Z,8.8
2023-12-11T09:26:00.052Z,8.8
2023-12-11T09:26:58.774Z,8.8
2023-12-11T09:28:01.220Z,8.8
2023-12-11T09:28:59.945Z,8.8
2023-12-11T09:29:58.701Z,8.8
2023-12-11T09:31:01.115Z,8.9
2023-12-11T09:31:59.806Z,8.9
2023-12-11T09:33:01.084Z,8.9
2023-12-11T09:34:00.065Z,8.9
2023-12-11T09:34:59.187Z,8.9
2023-12-11T09:35:59.965Z,8.9
2023-12-11T09:36:58.938Z,9
2023-12-11T09:38:00.010Z,9
2023-12-11T09:38:58.774Z,9
2023-12-11T09:40:01.542Z,9
2023-12-11T09:41:01.575Z,9
2023-12-11T09:41:59.785Z,9
2023-12-11T09:43:01.064Z,9
2023-12-11T09:43:59.853Z,9
2023-12-11T09:45:01.161Z,9
2023-12-11T09:45:59.872Z,9
2023-12-11T09:46:58.609Z,9.1
2023-12-11T09:48:08.635Z,9.1
2023-12-11T09:49:00.486Z,9.1
2023-12-11T09:49:59.336Z,9.1
2023-12-11T09:51:00.067Z,9.2
2023-12-11T09:51:58.800Z,9.2
2023-12-11T09:53:01.402Z,9.2
2023-12-11T09:53:59.969Z,9.3
2023-12-11T09:54:58.684Z,9.3
2023-12-11T09:56:00.447Z,9.3
2023-12-11T09:56:59.403Z,9.3
2023-12-11T09:58:00.273Z,9.3
2023-12-11T09:58:59.078Z,9.3
2023-12-11T09:59:59.808Z,9.4
2023-12-11T10:01:01.608Z,9.4
2023-12-11T10:02:00.205Z,9.4
2023-12-11T10:02:59.159Z,9.4
2023-12-11T10:04:00.058Z,9.5
2023-12-11T10:04:58.814Z,9.5
2023-12-11T10:06:04.885Z,9.5
2023-12-11T10:07:01.049Z,9.5
2023-12-11T10:07:59.757Z,9.6
2023-12-11T10:09:01.359Z,9.6
2023-12-11T10:10:00.085Z,9.6
2023-12-11T10:11:06.673Z,9.6
2023-12-11T10:12:00.182Z,9.6
2023-12-11T10:12:58.979Z,9.7
2023-12-11T10:13:59.690Z,9.7
2023-12-11T10:15:01.029Z,9.7
2023-12-11T10:16:09.129Z,9.7
2023-12-11T10:16:59.725Z,9.8
2023-12-11T10:18:01.541Z,9.8
2023-12-11T10:19:00.407Z,9.8
2023-12-11T10:19:59.316Z,9.9
2023-12-11T10:21:12.445Z,10
2023-12-11T10:22:01.047Z,10
2023-12-11T10:23:04.117Z,10
2023-12-11T10:23:59.751Z,10
2023-12-11T10:25:01.038Z,10
2023-12-11T10:26:14.966Z,10
2023-12-11T10:26:59.765Z,10
2023-12-11T10:28:01.054Z,10
2023-12-11T10:28:59.774Z,10
2023-12-11T10:30:01.039Z,10
2023-12-11T10:30:59.766Z,10
2023-12-11T10:32:01.142Z,10
2023-12-11T10:33:00.260Z,10
2023-12-11T10:33:59.289Z,10
2023-12-11T10:35:00.593Z,10
2023-12-11T10:35:59.435Z,10
2023-12-11T10:37:00.380Z,10
2023-12-11T10:37:59.137Z,10
2023-12-11T10:38:59.839Z,9.9
2023-12-11T10:40:01.018Z,9.8
2023-12-11T10:40:59.750Z,9.8
2023-12-11T10:42:01.005Z,9.7
2023-12-11T10:42:59.735Z,9.7
2023-12-11T10:44:12.134Z,9.6
2023-12-11T10:45:01.121Z,9.6
2023-12-11T10:45:59.857Z,9.5
2023-12-11T10:47:01.225Z,9.5
2023-12-11T10:48:00.140Z,9.5
2023-12-11T10:48:59.071Z,9.5
2023-12-11T10:50:00.019Z,9.5
2023-12-11T10:50:58.823Z,9.5
2023-12-11T10:52:00.999Z,9.4
2023-12-11T10:52:59.749Z,9.4
2023-12-11T10:54:01.130Z,9.4
2023-12-11T10:54:59.907Z,9.4
2023-12-11T10:55:58.757Z,9.3
2023-12-11T10:57:01.494Z,9.3
2023-12-11T10:58:00.056Z,9.3
2023-12-11T10:58:58.751Z,9.3
2023-12-11T11:00:01.005Z,9.3
2023-12-11T11:00:59.771Z,9.3
2023-12-11T11:02:01.183Z,9.3
2023-12-11T11:03:00.102Z,9.3
2023-12-11T11:03:58.802Z,9.3
2023-12-11T11:05:01.052Z,9.3
2023-12-11T11:05:59.886Z,9.3
2023-12-11T11:06:58.823Z,9.3
2023-12-11T11:08:00.972Z,9.3
2023-12-11T11:09:00.741Z,9.3
2023-12-11T11:09:59.677Z,9.3
2023-12-11T11:11:00.975Z,9.3
2023-12-11T11:11:59.654Z,9.3
2023-12-11T11:13:01.020Z,9.3
2023-12-11T11:13:59.761Z,9.3
2023-12-11T11:15:00.479Z,9.3
2023-12-11T11:15:59.252Z,9.3
2023-12-11T11:17:00.478Z,9.3
2023-12-11T11:17:59.426Z,9.3
2023-12-11T11:19:00.328Z,9.3
2023-12-11T11:19:59.112Z,9.3
2023-12-11T11:20:59.805Z,9.3
2023-12-11T11:22:01.115Z,9.3
2023-12-11T11:22:59.892Z,9.3
2023-12-11T11:24:01.338Z,9.2
2023-12-11T11:25:00.328Z,9.2
2023-12-11T11:25:59.298Z,9.1
2023-12-11T11:27:00.066Z,9.1
2023-12-11T11:27:58.744Z,9.1
2023-12-11T11:29:01.152Z,9.1
2023-12-11T11:30:00.107Z,9.1
2023-12-11T11:30:59.066Z,9.1
2023-12-11T11:32:02.522Z,9.1
2023-12-11T11:32:59.766Z,9
2023-12-11T11:34:01.195Z,9
2023-12-11T11:35:00.036Z,9.1
2023-12-11T11:35:58.792Z,9
2023-12-11T11:37:04.943Z,9
2023-12-11T11:38:00.344Z,9
2023-12-11T11:38:59.239Z,9
2023-12-11T11:40:00.261Z,9
2023-12-11T11:41:00.078Z,9
2023-12-11T11:42:07.422Z,9
2023-12-11T11:43:00.992Z,9
2023-12-11T11:43:59.737Z,9
2023-12-11T11:45:01.627Z,9
2023-12-11T11:46:00.095Z,9
2023-12-11T11:47:09.867Z,9
2023-12-11T11:47:59.758Z,9
2023-12-11T11:49:01.195Z,9
2023-12-11T11:50:00.358Z,9.1
2023-12-11T11:50:59.189Z,9.1
2023-12-11T11:52:13.335Z,9.1
2023-12-11T11:52:59.903Z,9.1
2023-12-11T11:54:01.055Z,9.1
2023-12-11T11:54:59.896Z,9.1
2023-12-11T11:55:58.874Z,9.1
2023-12-11T11:57:16.477Z,9.1
2023-12-11T11:58:00.332Z,9.1
2023-12-11T11:58:59.053Z,9.1
2023-12-11T11:59:59.768Z,9.2
2023-12-11T12:01:01.006Z,9.1
2023-12-11T12:01:59.908Z,9.1
2023-12-11T12:02:58.752Z,9.1
2023-12-11T12:04:01.458Z,9.1
2023-12-11T12:05:00.288Z,9.1
2023-12-11T12:05:59.102Z,9.1
2023-12-11T12:06:59.846Z,9.2
2023-12-11T12:08:00.940Z,9.1
2023-12-11T12:08:59.668Z,9.2
2023-12-11T12:10:00.548Z,9.3
2023-12-11T12:10:59.770Z,9.3
2023-12-11T12:12:00.962Z,9.3
2023-12-11T12:12:59.781Z,9.3
2023-12-11T12:14:01.112Z,9.4
2023-12-11T12:14:59.859Z,9.5
2023-12-11T12:16:01.014Z,9.5
2023-12-11T12:16:59.694Z,9.5
2023-12-11T12:18:01.080Z,9.5
2023-12-11T12:19:00.018Z,9.5
2023-12-11T12:20:00.728Z,9.5
2023-12-11T12:21:00.073Z,9.5
2023-12-11T12:21:58.780Z,9.5
2023-12-11T12:23:01.037Z,9.5
2023-12-11T12:23:59.700Z,9.5
2023-12-11T12:25:01.077Z,9.5
2023-12-11T12:25:59.806Z,9.5
2023-12-11T12:27:01.264Z,9.5
2023-12-11T12:28:00.281Z,9.5
2023-12-11T12:28:59.012Z,9.5
2023-12-11T12:29:59.661Z,9.5
2023-12-11T12:31:00.422Z,9.6
2023-12-11T12:31:59.126Z,9.6
2023-12-11T12:32:59.854Z,9.6
2023-12-11T12:34:00.997Z,9.6
2023-12-11T12:34:59.907Z,9.6
2023-12-11T12:35:58.642Z,9.6
2023-12-11T12:37:00.461Z,9.6
2023-12-11T12:37:59.185Z,9.6
2023-12-11T12:38:59.939Z,9.7
2023-12-11T12:39:58.670Z,9.8
2023-12-11T12:41:01.147Z,9.8
2023-12-11T12:41:59.827Z,9.8
2023-12-11T12:43:00.956Z,9.8
2023-12-11T12:43:59.755Z,9.8
2023-12-11T12:45:00.960Z,9.8
2023-12-11T12:45:59.715Z,9.8
2023-12-11T12:47:01.006Z,9.8
2023-12-11T12:47:59.846Z,9.8
2023-12-11T12:49:01.091Z,9.8
2023-12-11T12:49:59.942Z,9.8
2023-12-11T12:50:58.647Z,9.7
2023-12-11T12:52:00.521Z,9.7
2023-12-11T12:52:59.284Z,9.7
2023-12-11T12:53:59.990Z,9.7
2023-12-11T12:54:58.731Z,9.6
2023-12-11T12:56:01.079Z,9.7
2023-12-11T12:57:00.037Z,9.6
2023-12-11T12:57:58.827Z,9.6
2023-12-11T12:59:01.046Z,9.6
2023-12-11T12:59:59.748Z,9.6
2023-12-11T13:01:01.123Z,9.6
2023-12-11T13:01:59.909Z,9.6
2023-12-11T13:02:58.717Z,9.6
2023-12-11T13:04:01.146Z,9.5
2023-12-11T13:04:59.958Z,9.6
2023-12-11T13:05:58.761Z,9.5
2023-12-11T13:07:01.177Z,9.5
2023-12-11T13:07:59.907Z,9.5
2023-12-11T13:08:58.645Z,9.5
2023-12-11T13:10:00.371Z,9.5
2023-12-11T13:10:59.078Z,9.5
2023-12-11T13:11:59.814Z,9.5
2023-12-11T13:13:00.672Z,9.6
2023-12-11T13:13:59.428Z,9.5
2023-12-11T13:15:00.216Z,9.5
2023-12-11T13:15:58.981Z,9.6
2023-12-11T13:17:00.093Z,9.5
2023-12-11T13:18:03.213Z,9.5
2023-12-11T13:18:59.995Z,9.5
2023-12-11T13:19:59.184Z,9.5
2023-12-11T13:21:00.001Z,9.5
2023-12-11T13:21:58.740Z,9.5
2023-12-11T13:23:05.725Z,9.5
2023-12-11T13:24:01.560Z,9.5
2023-12-11T13:25:00.364Z,9.5
2023-12-11T13:25:59.024Z,9.5
2023-12-11T13:26:59.705Z,9.5
2023-12-11T13:28:09.072Z,9.5
2023-12-11T13:29:01.042Z,9.5
2023-12-11T13:29:59.804Z,9.5
2023-12-11T13:31:01.089Z,9.5
2023-12-11T13:31:59.930Z,9.5
2023-12-11T13:33:10.733Z,9.5
2023-12-11T13:34:00.282Z,9.5
2023-12-11T13:34:59.087Z,9.6
2023-12-11T13:35:59.872Z,9.6
2023-12-11T13:37:01.017Z,9.6
2023-12-11T13:38:12.927Z,9.5
2023-12-11T13:38:59.759Z,9.6
2023-12-11T13:40:01.041Z,9.6
2023-12-11T13:40:59.751Z,9.6
2023-12-11T13:42:01.209Z,9.5
2023-12-11T13:43:15.236Z,9.5
2023-12-11T13:43:59.904Z,9.5
2023-12-11T13:44:58.689Z,9.5
2023-12-11T13:46:00.512Z,9.5
2023-12-11T13:46:59.242Z,9.5
2023-12-11T13:48:00.191Z,9.5
2023-12-11T13:48:59.325Z,9.5
2023-12-11T13:50:00.449Z,9.5
2023-12-11T13:50:59.270Z,9.5
2023-12-11T13:52:00.454Z,9.5
2023-12-11T13:52:59.239Z,9.5
2023-12-11T13:54:00.008Z,9.5
2023-12-11T13:54:58.779Z,9.5